Pagrindinis puslapis
METAR-TAF:

METAR-TAF

Oro uostai :

Northolt, Anglija

platuma: 51-33N, ilguma: 000-25W, Aukštis: 38 m

Dabartinis oras

Ataskaita buvo paskelbta 18 minutes, ne 08:50 UTC
Vėjas 13 kt iš Šiaurės Rytų
Temperatūra 7°C
Drėgmė 70%
Slėgis 1033 hPa
Matomumas 10 km arba daugiau
Mažai debesys ne aukštis 2200 ft

METAR: EGWU 310850Z 05013KT 9999 FEW022 07/02 Q1033 NOSIG RMK BLU BLU

Laikas: 10:08 (09:08 UTC)

Prognozė

Ataskaita buvo paskelbta 1 valandą ir 38 minutes, ne 07:30 UTC
Prognozė galioja nuo 31 metu 09 UTC su 01 metu 03 UTC
Vėjas 12 kt iš Šiaurės Rytų
Matomumas 10 km arba daugiau
Išsisklaidę debesys ne aukštis 3500 ft

TAF: EGWU 310730Z 3109/0103 05012KT 9999 SCT035

Orai ataskaitas ir orų prognozės (METAR, TAF).

turimą stotys yra geltonos ir raudonos taškus žemėlapyje.

Perkelti pele per norėdami pamatyti stoties vardą.

Tada spustelėkite, norėdami matyti oro stebėjimo ir prognozės.

Norėdami pakeisti žemėlapį: spustelėkite ant žalios mygtukų su juodo kryžiaus žemyn,; žalią mygtuką su brūkšneliu, jei norite nutolinti; arba žalių rodyklių gretimoms žemėlapius.


METAR-TAF: